sensor_id;sensor_type;location;lat;lon;timestamp;pressure;altitude;pressure_sealevel;temperature;humidity
80397;BME280;69721;55.894;-3.052;2023-08-20T00:00:54;100703.49;;;19.03;51.99
80397;BME280;69721;55.894;-3.052;2023-08-20T00:03:19;100708.35;;;18.10;54.13
80397;BME280;69721;55.894;-3.052;2023-08-20T00:05:45;100706.82;;;18.88;52.48
80397;BME280;69721;55.894;-3.052;2023-08-20T00:08:10;100710.29;;;18.81;52.49
80397;BME280;69721;55.894;-3.052;2023-08-20T00:10:35;100715.32;;;18.76;53.14
80397;BME280;69721;55.894;-3.052;2023-08-20T00:13:01;100714.05;;;18.56;53.63
80397;BME280;69721;55.894;-3.052;2023-08-20T00:15:26;100708.47;;;18.53;53.16
80397;BME280;69721;55.894;-3.052;2023-08-20T00:17:51;100715.05;;;18.09;54.73
80397;BME280;69721;55.894;-3.052;2023-08-20T00:20:17;100717.86;;;18.73;53.55
80397;BME280;69721;55.894;-3.052;2023-08-20T00:22:43;100721.50;;;19.90;49.56
80397;BME280;69721;55.894;-3.052;2023-08-20T00:25:08;100723.28;;;19.26;50.50
80397;BME280;69721;55.894;-3.052;2023-08-20T00:27:33;100724.26;;;19.20;51.39
80397;BME280;69721;55.894;-3.052;2023-08-20T00:29:59;100728.35;;;20.46;48.11
80397;BME280;69721;55.894;-3.052;2023-08-20T00:32:23;100730.42;;;20.95;46.97
80397;BME280;69721;55.894;-3.052;2023-08-20T00:34:49;100731.14;;;20.18;48.60
80397;BME280;69721;55.894;-3.052;2023-08-20T00:37:14;100734.53;;;20.06;48.63
80397;BME280;69721;55.894;-3.052;2023-08-20T00:39:40;100729.79;;;21.65;45.88
80397;BME280;69721;55.894;-3.052;2023-08-20T00:42:05;100733.12;;;21.08;46.57
80397;BME280;69721;55.894;-3.052;2023-08-20T00:44:31;100739.84;;;19.60;48.86
80397;BME280;69721;55.894;-3.052;2023-08-20T00:46:56;100742.25;;;19.88;48.49
80397;BME280;69721;55.894;-3.052;2023-08-20T00:49:21;100740.92;;;20.34;47.90
80397;BME280;69721;55.894;-3.052;2023-08-20T00:54:12;100748.80;;;19.17;49.75
80397;BME280;69721;55.894;-3.052;2023-08-20T00:56:37;100748.13;;;19.47;49.00
80397;BME280;69721;55.894;-3.052;2023-08-20T00:59:04;100751.71;;;19.83;47.92
80397;BME280;69721;55.894;-3.052;2023-08-20T01:01:28;100754.81;;;20.40;47.18
80397;BME280;69721;55.894;-3.052;2023-08-20T01:03:54;100755.19;;;18.97;50.37
80397;BME280;69721;55.894;-3.052;2023-08-20T01:06:23;100758.76;;;18.49;51.67
80397;BME280;69721;55.894;-3.052;2023-08-20T01:08:47;100769.15;;;20.06;49.03
80397;BME280;69721;55.894;-3.052;2023-08-20T01:11:16;100765.58;;;18.99;50.28
80397;BME280;69721;55.894;-3.052;2023-08-20T01:13:35;100769.91;;;19.78;48.72
80397;BME280;69721;55.894;-3.052;2023-08-20T01:16:00;100769.46;;;18.86;50.96
80397;BME280;69721;55.894;-3.052;2023-08-20T01:18:25;100772.31;;;20.20;48.60
80397;BME280;69721;55.894;-3.052;2023-08-20T01:20:55;100770.97;;;20.12;47.79
80397;BME280;69721;55.894;-3.052;2023-08-20T01:25:53;100773.38;;;19.07;50.69
80397;BME280;69721;55.894;-3.052;2023-08-20T01:28:18;100771.90;;;18.87;51.05
80397;BME280;69721;55.894;-3.052;2023-08-20T01:30:32;100774.05;;;18.08;53.11
80397;BME280;69721;55.894;-3.052;2023-08-20T01:32:58;100778.21;;;18.11;52.68
80397;BME280;69721;55.894;-3.052;2023-08-20T01:35:24;100778.92;;;17.49;54.24
80397;BME280;69721;55.894;-3.052;2023-08-20T01:37:48;100778.44;;;17.84;54.74
80397;BME280;69721;55.894;-3.052;2023-08-20T01:40:14;100780.88;;;18.02;54.05
80397;BME280;69721;55.894;-3.052;2023-08-20T01:42:40;100776.77;;;18.36;53.19
80397;BME280;69721;55.894;-3.052;2023-08-20T01:45:05;100784.04;;;17.99;54.21
80397;BME280;69721;55.894;-3.052;2023-08-20T01:47:30;100782.74;;;18.14;54.00
80397;BME280;69721;55.894;-3.052;2023-08-20T01:49:55;100781.76;;;17.76;55.15
80397;BME280;69721;55.894;-3.052;2023-08-20T01:52:21;100785.58;;;18.42;53.84
80397;BME280;69721;55.894;-3.052;2023-08-20T01:54:48;100787.39;;;18.40;52.61
80397;BME280;69721;55.894;-3.052;2023-08-20T01:57:12;100785.27;;;18.44;52.65
80397;BME280;69721;55.894;-3.052;2023-08-20T01:59:38;100789.58;;;19.13;51.20
80397;BME280;69721;55.894;-3.052;2023-08-20T02:04:28;100792.72;;;20.24;47.92
80397;BME280;69721;55.894;-3.052;2023-08-20T02:06:54;100795.93;;;19.42;49.65
80397;BME280;69721;55.894;-3.052;2023-08-20T02:09:19;100804.03;;;18.95;50.31
80397;BME280;69721;55.894;-3.052;2023-08-20T02:11:50;100801.24;;;18.41;51.41
80397;BME280;69721;55.894;-3.052;2023-08-20T02:14:15;100803.76;;;18.75;50.27
80397;BME280;69721;55.894;-3.052;2023-08-20T02:16:42;100805.42;;;18.74;50.97
80397;BME280;69721;55.894;-3.052;2023-08-20T02:19:07;100805.51;;;18.46;50.86
80397;BME280;69721;55.894;-3.052;2023-08-20T02:21:32;100806.90;;;19.38;49.88
80397;BME280;69721;55.894;-3.052;2023-08-20T02:23:58;100809.00;;;18.10;52.43
80397;BME280;69721;55.894;-3.052;2023-08-20T02:26:25;100808.99;;;17.91;53.14
80397;BME280;69721;55.894;-3.052;2023-08-20T02:28:50;100812.22;;;19.16;50.38
80397;BME280;69721;55.894;-3.052;2023-08-20T02:31:16;100813.78;;;19.10;49.44
80397;BME280;69721;55.894;-3.052;2023-08-20T02:33:42;100813.97;;;18.13;52.24
80397;BME280;69721;55.894;-3.052;2023-08-20T02:36:07;100818.95;;;18.30;51.90
80397;BME280;69721;55.894;-3.052;2023-08-20T02:38:33;100818.12;;;17.65;53.12
80397;BME280;69721;55.894;-3.052;2023-08-20T02:40:58;100821.30;;;18.41;52.23
80397;BME280;69721;55.894;-3.052;2023-08-20T02:43:23;100817.29;;;18.95;50.74
80397;BME280;69721;55.894;-3.052;2023-08-20T02:45:49;100819.80;;;18.33;51.50
80397;BME280;69721;55.894;-3.052;2023-08-20T02:48:14;100819.72;;;18.81;50.12
80397;BME280;69721;55.894;-3.052;2023-08-20T02:50:39;100819.94;;;18.92;50.10
80397;BME280;69721;55.894;-3.052;2023-08-20T02:53:05;100823.03;;;18.63;50.54
80397;BME280;69721;55.894;-3.052;2023-08-20T02:55:30;100829.52;;;17.30;53.08
80397;BME280;69721;55.894;-3.052;2023-08-20T02:57:56;100830.07;;;17.81;52.70
80397;BME280;69721;55.894;-3.052;2023-08-20T03:00:21;100827.38;;;18.97;49.57
80397;BME280;69721;55.894;-3.052;2023-08-20T03:02:46;100831.33;;;19.18;49.17
80397;BME280;69721;55.894;-3.052;2023-08-20T03:05:12;100834.45;;;18.79;49.34
80397;BME280;69721;55.894;-3.052;2023-08-20T03:07:37;100836.58;;;18.20;50.03
80397;BME280;69721;55.894;-3.052;2023-08-20T03:10:03;100835.50;;;18.92;48.79
80397;BME280;69721;55.894;-3.052;2023-08-20T03:14:53;100844.62;;;18.92;48.54
80397;BME280;69721;55.894;-3.052;2023-08-20T03:17:19;100838.29;;;19.92;46.50
80397;BME280;69721;55.894;-3.052;2023-08-20T03:19:54;100840.71;;;17.31;51.57
80397;BME280;69721;55.894;-3.052;2023-08-20T03:22:09;100843.08;;;18.32;50.04
80397;BME280;69721;55.894;-3.052;2023-08-20T03:24:35;100844.72;;;18.28;50.27
80397;BME280;69721;55.894;-3.052;2023-08-20T03:27:00;100843.80;;;18.66;48.71
80397;BME280;69721;55.894;-3.052;2023-08-20T03:29:26;100850.16;;;18.82;48.44
80397;BME280;69721;55.894;-3.052;2023-08-20T03:31:51;100853.51;;;19.26;47.23
80397;BME280;69721;55.894;-3.052;2023-08-20T03:34:16;100861.61;;;19.68;46.70
80397;BME280;69721;55.894;-3.052;2023-08-20T03:36:42;100865.09;;;19.02;47.79
80397;BME280;69721;55.894;-3.052;2023-08-20T03:39:07;100865.53;;;19.07;47.57
80397;BME280;69721;55.894;-3.052;2023-08-20T03:41:32;100868.04;;;19.65;46.06
80397;BME280;69721;55.894;-3.052;2023-08-20T03:43:58;100866.49;;;19.57;46.05
80397;BME280;69721;55.894;-3.052;2023-08-20T03:46:23;100866.88;;;19.46;46.58
80397;BME280;69721;55.894;-3.052;2023-08-20T03:48:49;100873.76;;;18.03;49.30
80397;BME280;69721;55.894;-3.052;2023-08-20T03:51:14;100875.00;;;17.69;50.36
80397;BME280;69721;55.894;-3.052;2023-08-20T03:53:40;100882.69;;;17.53;50.40
80397;BME280;69721;55.894;-3.052;2023-08-20T03:56:06;100892.28;;;17.02;51.99
80397;BME280;69721;55.894;-3.052;2023-08-20T03:58:31;100889.00;;;18.24;49.25
80397;BME280;69721;55.894;-3.052;2023-08-20T04:00:57;100886.11;;;18.98;48.38
80397;BME280;69721;55.894;-3.052;2023-08-20T04:03:22;100882.04;;;19.09;47.17
80397;BME280;69721;55.894;-3.052;2023-08-20T04:05:49;100882.05;;;19.57;46.69
80397;BME280;69721;55.894;-3.052;2023-08-20T04:08:13;100881.07;;;19.71;45.57
80397;BME280;69721;55.894;-3.052;2023-08-20T04:10:43;100878.82;;;19.18;46.62
80397;BME280;69721;55.894;-3.052;2023-08-20T04:13:04;100884.73;;;19.45;45.71
80397;BME280;69721;55.894;-3.052;2023-08-20T04:15:29;100884.61;;;20.23;44.66
80397;BME280;69721;55.894;-3.052;2023-08-20T04:17:54;100896.14;;;19.74;44.48
80397;BME280;69721;55.894;-3.052;2023-08-20T04:20:19;100896.06;;;20.02;44.14
80397;BME280;69721;55.894;-3.052;2023-08-20T04:22:59;100900.13;;;19.97;44.47
80397;BME280;69721;55.894;-3.052;2023-08-20T04:25:10;100896.36;;;19.99;44.61
80397;BME280;69721;55.894;-3.052;2023-08-20T04:27:36;100893.92;;;20.30;43.97
80397;BME280;69721;55.894;-3.052;2023-08-20T04:30:01;100899.34;;;20.70;43.08
80397;BME280;69721;55.894;-3.052;2023-08-20T04:32:27;100897.89;;;20.33;43.09
80397;BME280;69721;55.894;-3.052;2023-08-20T04:34:52;100903.08;;;20.25;43.76
80397;BME280;69721;55.894;-3.052;2023-08-20T04:37:18;100903.11;;;20.10;43.97
80397;BME280;69721;55.894;-3.052;2023-08-20T04:39:43;100904.01;;;19.92;43.80
80397;BME280;69721;55.894;-3.052;2023-08-20T04:42:08;100907.59;;;20.41;43.45
80397;BME280;69721;55.894;-3.052;2023-08-20T04:44:34;100918.42;;;20.02;44.37
80397;BME280;69721;55.894;-3.052;2023-08-20T04:47:00;100921.51;;;20.46;44.28
80397;BME280;69721;55.894;-3.052;2023-08-20T04:49:24;100921.08;;;20.08;44.06
80397;BME280;69721;55.894;-3.052;2023-08-20T04:51:50;100923.75;;;20.32;44.00
80397;BME280;69721;55.894;-3.052;2023-08-20T04:54:15;100929.21;;;20.45;43.39
80397;BME280;69721;55.894;-3.052;2023-08-20T04:56:40;100929.34;;;20.17;43.86
80397;BME280;69721;55.894;-3.052;2023-08-20T04:59:06;100934.66;;;20.16;43.93
80397;BME280;69721;55.894;-3.052;2023-08-20T05:01:31;100938.52;;;20.05;43.90
80397;BME280;69721;55.894;-3.052;2023-08-20T05:03:56;100937.66;;;20.11;44.13
80397;BME280;69721;55.894;-3.052;2023-08-20T05:06:22;100939.87;;;20.17;44.47
80397;BME280;69721;55.894;-3.052;2023-08-20T05:08:47;100944.40;;;20.20;44.20
80397;BME280;69721;55.894;-3.052;2023-08-20T05:11:12;100948.65;;;19.64;44.31
80397;BME280;69721;55.894;-3.052;2023-08-20T05:13:38;100950.39;;;20.11;43.53
80397;BME280;69721;55.894;-3.052;2023-08-20T05:16:03;100950.22;;;20.12;43.56
80397;BME280;69721;55.894;-3.052;2023-08-20T05:18:29;100944.76;;;20.37;42.96
80397;BME280;69721;55.894;-3.052;2023-08-20T05:20:54;100949.10;;;20.32;43.06
80397;BME280;69721;55.894;-3.052;2023-08-20T05:23:20;100954.84;;;20.68;42.53
80397;BME280;69721;55.894;-3.052;2023-08-20T05:25:45;100961.55;;;20.79;42.17
80397;BME280;69721;55.894;-3.052;2023-08-20T05:28:11;100958.44;;;20.59;42.77
80397;BME280;69721;55.894;-3.052;2023-08-20T05:33:06;100960.45;;;20.73;42.48
80397;BME280;69721;55.894;-3.052;2023-08-20T05:35:27;100964.36;;;20.64;42.69
80397;BME280;69721;55.894;-3.052;2023-08-20T05:37:52;100967.06;;;20.60;42.73
80397;BME280;69721;55.894;-3.052;2023-08-20T05:40:17;100961.66;;;20.53;42.89
80397;BME280;69721;55.894;-3.052;2023-08-20T05:42:43;100958.07;;;20.89;42.66
80397;BME280;69721;55.894;-3.052;2023-08-20T05:45:09;100960.58;;;21.16;42.07
80397;BME280;69721;55.894;-3.052;2023-08-20T05:47:34;100967.76;;;20.75;42.48
80397;BME280;69721;55.894;-3.052;2023-08-20T05:49:59;100972.40;;;20.65;42.95
80397;BME280;69721;55.894;-3.052;2023-08-20T05:52:24;100975.35;;;20.93;42.82
80397;BME280;69721;55.894;-3.052;2023-08-20T05:54:50;100978.95;;;21.57;42.39
80397;BME280;69721;55.894;-3.052;2023-08-20T05:57:15;100984.68;;;21.60;42.37
80397;BME280;69721;55.894;-3.052;2023-08-20T05:59:40;100984.89;;;20.59;43.12
80397;BME280;69721;55.894;-3.052;2023-08-20T06:02:06;100985.58;;;20.06;44.52
80397;BME280;69721;55.894;-3.052;2023-08-20T06:04:31;100982.53;;;20.51;44.03
80397;BME280;69721;55.894;-3.052;2023-08-20T06:06:56;100977.37;;;21.51;42.28
80397;BME280;69721;55.894;-3.052;2023-08-20T06:09:22;100981.49;;;21.44;42.91
80397;BME280;69721;55.894;-3.052;2023-08-20T06:11:47;100987.73;;;21.66;42.15
80397;BME280;69721;55.894;-3.052;2023-08-20T06:14:13;100985.21;;;21.73;41.99
80397;BME280;69721;55.894;-3.052;2023-08-20T06:16:38;100980.45;;;22.42;41.20
80397;BME280;69721;55.894;-3.052;2023-08-20T06:19:03;100976.91;;;22.12;41.07
80397;BME280;69721;55.894;-3.052;2023-08-20T06:21:29;100978.31;;;22.27;41.52
80397;BME280;69721;55.894;-3.052;2023-08-20T06:23:54;100979.30;;;22.44;41.05
80397;BME280;69721;55.894;-3.052;2023-08-20T06:26:19;100982.02;;;21.97;41.53
80397;BME280;69721;55.894;-3.052;2023-08-20T06:28:45;100985.09;;;21.49;42.94
80397;BME280;69721;55.894;-3.052;2023-08-20T06:31:10;100987.00;;;21.69;42.84
80397;BME280;69721;55.894;-3.052;2023-08-20T06:33:35;100995.02;;;22.44;42.15
80397;BME280;69721;55.894;-3.052;2023-08-20T06:36:02;101001.67;;;22.06;42.73
80397;BME280;69721;55.894;-3.052;2023-08-20T06:38:27;101000.24;;;19.68;46.12
80397;BME280;69721;55.894;-3.052;2023-08-20T06:40:52;100998.76;;;21.00;45.15
80397;BME280;69721;55.894;-3.052;2023-08-20T06:43:17;101000.29;;;21.34;44.34
80397;BME280;69721;55.894;-3.052;2023-08-20T06:45:43;101000.21;;;21.14;44.43
80397;BME280;69721;55.894;-3.052;2023-08-20T06:48:08;100997.72;;;21.51;44.36
80397;BME280;69721;55.894;-3.052;2023-08-20T06:50:33;101000.34;;;21.54;43.56
80397;BME280;69721;55.894;-3.052;2023-08-20T06:53:00;100994.84;;;21.35;43.58
80397;BME280;69721;55.894;-3.052;2023-08-20T06:55:25;100994.17;;;22.06;43.14
80397;BME280;69721;55.894;-3.052;2023-08-20T06:57:50;100997.52;;;22.26;42.30
80397;BME280;69721;55.894;-3.052;2023-08-20T07:00:16;101004.19;;;22.33;43.12
80397;BME280;69721;55.894;-3.052;2023-08-20T07:02:41;101007.20;;;21.88;43.35
80397;BME280;69721;55.894;-3.052;2023-08-20T07:05:07;101004.91;;;21.63;43.92
80397;BME280;69721;55.894;-3.052;2023-08-20T07:07:32;101004.63;;;21.65;44.05
80397;BME280;69721;55.894;-3.052;2023-08-20T07:09:57;101006.67;;;21.96;43.75
80397;BME280;69721;55.894;-3.052;2023-08-20T07:12:23;101006.74;;;21.83;43.69
80397;BME280;69721;55.894;-3.052;2023-08-20T07:14:48;101007.99;;;21.61;43.91
80397;BME280;69721;55.894;-3.052;2023-08-20T07:17:13;101010.82;;;21.95;43.30
80397;BME280;69721;55.894;-3.052;2023-08-20T07:19:39;101014.07;;;22.40;42.85
80397;BME280;69721;55.894;-3.052;2023-08-20T07:22:04;101014.07;;;22.37;43.68
80397;BME280;69721;55.894;-3.052;2023-08-20T07:24:30;101015.45;;;21.56;44.09
80397;BME280;69721;55.894;-3.052;2023-08-20T07:26:56;101021.23;;;21.14;44.83
80397;BME280;69721;55.894;-3.052;2023-08-20T07:29:21;101021.35;;;20.74;46.36
80397;BME280;69721;55.894;-3.052;2023-08-20T07:31:46;101021.65;;;21.83;44.42
80397;BME280;69721;55.894;-3.052;2023-08-20T07:34:12;101017.97;;;21.51;44.54
80397;BME280;69721;55.894;-3.052;2023-08-20T07:36:37;101024.17;;;21.15;45.52
80397;BME280;69721;55.894;-3.052;2023-08-20T07:39:03;101022.90;;;21.37;45.21
80397;BME280;69721;55.894;-3.052;2023-08-20T07:41:28;101023.11;;;21.82;43.47
80397;BME280;69721;55.894;-3.052;2023-08-20T07:43:53;101027.03;;;22.44;43.16
80397;BME280;69721;55.894;-3.052;2023-08-20T07:46:19;101028.06;;;22.43;42.13
80397;BME280;69721;55.894;-3.052;2023-08-20T07:48:45;101032.79;;;22.59;41.67
80397;BME280;69721;55.894;-3.052;2023-08-20T07:53:35;101040.80;;;21.85;43.23
80397;BME280;69721;55.894;-3.052;2023-08-20T07:56:01;101041.46;;;21.73;43.93
80397;BME280;69721;55.894;-3.052;2023-08-20T07:58:26;101038.58;;;22.67;42.18
80397;BME280;69721;55.894;-3.052;2023-08-20T08:00:51;101038.06;;;20.94;45.86
80397;BME280;69721;55.894;-3.052;2023-08-20T08:03:16;101039.01;;;21.34;44.29
80397;BME280;69721;55.894;-3.052;2023-08-20T08:05:42;101041.90;;;20.82;45.24
80397;BME280;69721;55.894;-3.052;2023-08-20T08:08:07;101041.45;;;21.16;45.21
80397;BME280;69721;55.894;-3.052;2023-08-20T08:10:32;101045.90;;;20.95;45.56
80397;BME280;69721;55.894;-3.052;2023-08-20T08:12:58;101050.51;;;22.16;43.73
80397;BME280;69721;55.894;-3.052;2023-08-20T08:15:23;101049.80;;;22.52;42.84
80397;BME280;69721;55.894;-3.052;2023-08-20T08:17:49;101046.18;;;22.45;43.21
80397;BME280;69721;55.894;-3.052;2023-08-20T08:20:14;101039.47;;;22.72;42.76
80397;BME280;69721;55.894;-3.052;2023-08-20T08:22:39;101045.47;;;22.59;43.03
80397;BME280;69721;55.894;-3.052;2023-08-20T08:25:05;101039.91;;;22.94;42.40
80397;BME280;69721;55.894;-3.052;2023-08-20T08:27:30;101037.35;;;23.93;41.63
80397;BME280;69721;55.894;-3.052;2023-08-20T08:29:55;101041.90;;;22.27;42.85
80397;BME280;69721;55.894;-3.052;2023-08-20T08:32:20;101037.06;;;23.94;40.74
80397;BME280;69721;55.894;-3.052;2023-08-20T08:34:46;101040.71;;;23.68;41.20
80397;BME280;69721;55.894;-3.052;2023-08-20T08:37:11;101052.32;;;22.29;43.08
80397;BME280;69721;55.894;-3.052;2023-08-20T08:39:37;101047.88;;;23.00;41.84
80397;BME280;69721;55.894;-3.052;2023-08-20T08:42:04;101052.25;;;23.05;41.58
80397;BME280;69721;55.894;-3.052;2023-08-20T08:44:28;101061.69;;;22.14;43.61
80397;BME280;69721;55.894;-3.052;2023-08-20T08:46:53;101063.61;;;21.29;43.65
80397;BME280;69721;55.894;-3.052;2023-08-20T08:49:18;101067.83;;;21.57;43.69
80397;BME280;69721;55.894;-3.052;2023-08-20T08:51:45;101068.83;;;21.70;43.45
80397;BME280;69721;55.894;-3.052;2023-08-20T08:54:10;101073.69;;;22.71;42.56
80397;BME280;69721;55.894;-3.052;2023-08-20T08:56:35;101074.69;;;20.88;45.18
80397;BME280;69721;55.894;-3.052;2023-08-20T08:59:01;101074.05;;;20.86;44.96
80397;BME280;69721;55.894;-3.052;2023-08-20T09:03:51;101092.74;;;20.90;48.52
80397;BME280;69721;55.894;-3.052;2023-08-20T09:06:16;101087.92;;;19.57;52.26
80397;BME280;69721;55.894;-3.052;2023-08-20T09:08:42;101091.38;;;19.77;51.20
80397;BME280;69721;55.894;-3.052;2023-08-20T09:11:07;101098.63;;;20.96;50.84
80397;BME280;69721;55.894;-3.052;2023-08-20T09:13:35;101099.92;;;20.72;49.83
80397;BME280;69721;55.894;-3.052;2023-08-20T09:15:58;101101.68;;;19.79;51.17
80397;BME280;69721;55.894;-3.052;2023-08-20T09:18:23;101102.33;;;20.76;50.54
80397;BME280;69721;55.894;-3.052;2023-08-20T09:20:49;101098.94;;;20.12;51.51
80397;BME280;69721;55.894;-3.052;2023-08-20T09:23:14;101101.53;;;21.21;49.93
80397;BME280;69721;55.894;-3.052;2023-08-20T09:25:44;101101.02;;;21.35;49.45
80397;BME280;69721;55.894;-3.052;2023-08-20T09:28:05;101097.77;;;22.24;47.80
80397;BME280;69721;55.894;-3.052;2023-08-20T09:30:30;101100.22;;;22.71;46.81
80397;BME280;69721;55.894;-3.052;2023-08-20T09:33:07;101095.57;;;21.47;48.82
80397;BME280;69721;55.894;-3.052;2023-08-20T09:35:21;101094.19;;;22.22;46.04
80397;BME280;69721;55.894;-3.052;2023-08-20T09:37:47;101091.62;;;22.97;47.27
80397;BME280;69721;55.894;-3.052;2023-08-20T09:40:12;101093.08;;;22.51;46.08
80397;BME280;69721;55.894;-3.052;2023-08-20T09:42:37;101087.11;;;23.09;46.52
80397;BME280;69721;55.894;-3.052;2023-08-20T09:45:04;101080.27;;;23.35;45.01
80397;BME280;69721;55.894;-3.052;2023-08-20T09:47:29;101079.34;;;23.25;44.88
80397;BME280;69721;55.894;-3.052;2023-08-20T09:49:54;101087.35;;;22.39;45.11
80397;BME280;69721;55.894;-3.052;2023-08-20T09:52:25;101086.00;;;23.05;44.77
80397;BME280;69721;55.894;-3.052;2023-08-20T09:54:55;101080.75;;;23.37;45.83
80397;BME280;69721;55.894;-3.052;2023-08-20T09:57:22;101076.75;;;23.74;43.84
80397;BME280;69721;55.894;-3.052;2023-08-20T09:59:36;101080.22;;;23.52;44.67
80397;BME280;69721;55.894;-3.052;2023-08-20T10:02:01;101081.36;;;23.75;41.70
80397;BME280;69721;55.894;-3.052;2023-08-20T10:04:25;101086.30;;;20.88;46.63
80397;BME280;69721;55.894;-3.052;2023-08-20T10:06:52;101087.14;;;20.39;47.26
80397;BME280;69721;55.894;-3.052;2023-08-20T10:09:17;101087.11;;;20.52;48.13
80397;BME280;69721;55.894;-3.052;2023-08-20T10:14:07;101089.24;;;21.30;46.15
80397;BME280;69721;55.894;-3.052;2023-08-20T10:16:33;101089.32;;;20.94;45.85
80397;BME280;69721;55.894;-3.052;2023-08-20T10:19:02;101090.79;;;20.54;46.77
80397;BME280;69721;55.894;-3.052;2023-08-20T10:21:24;101086.95;;;20.46;46.54
80397;BME280;69721;55.894;-3.052;2023-08-20T10:23:49;101086.00;;;21.92;44.47
80397;BME280;69721;55.894;-3.052;2023-08-20T10:26:14;101083.74;;;21.35;44.24
80397;BME280;69721;55.894;-3.052;2023-08-20T10:28:40;101083.39;;;21.48;44.62
80397;BME280;69721;55.894;-3.052;2023-08-20T10:31:06;101084.01;;;21.01;44.93
80397;BME280;69721;55.894;-3.052;2023-08-20T10:33:30;101085.47;;;21.01;45.13
80397;BME280;69721;55.894;-3.052;2023-08-20T10:35:55;101087.22;;;20.57;46.21
80397;BME280;69721;55.894;-3.052;2023-08-20T10:38:22;101091.42;;;20.01;47.26
80397;BME280;69721;55.894;-3.052;2023-08-20T10:40:48;101096.83;;;19.18;47.61
80397;BME280;69721;55.894;-3.052;2023-08-20T10:46:14;101100.26;;;20.55;48.32
80397;BME280;69721;55.894;-3.052;2023-08-20T10:48:33;101101.46;;;20.92;46.03
80397;BME280;69721;55.894;-3.052;2023-08-20T10:50:58;101100.56;;;20.06;48.66
80397;BME280;69721;55.894;-3.052;2023-08-20T10:53:23;101109.37;;;21.27;46.45
80397;BME280;69721;55.894;-3.052;2023-08-20T10:55:49;101108.02;;;21.47;46.62
80397;BME280;69721;55.894;-3.052;2023-08-20T10:58:31;101107.08;;;19.95;46.83
80397;BME280;69721;55.894;-3.052;2023-08-20T11:00:39;101107.67;;;20.19;45.15
80397;BME280;69721;55.894;-3.052;2023-08-20T11:03:06;101105.13;;;20.32;47.06
80397;BME280;69721;55.894;-3.052;2023-08-20T11:05:30;101110.21;;;19.50;47.95
80397;BME280;69721;55.894;-3.052;2023-08-20T11:07:55;101110.44;;;19.08;47.93
80397;BME280;69721;55.894;-3.052;2023-08-20T11:10:21;101112.45;;;20.79;47.35
80397;BME280;69721;55.894;-3.052;2023-08-20T11:12:47;101103.05;;;20.66;46.29
80397;BME280;69721;55.894;-3.052;2023-08-20T11:15:12;101097.68;;;20.74;45.76
80397;BME280;69721;55.894;-3.052;2023-08-20T11:17:41;101093.82;;;21.62;46.32
80397;BME280;69721;55.894;-3.052;2023-08-20T11:20:02;101098.22;;;21.14;44.11
80397;BME280;69721;55.894;-3.052;2023-08-20T11:24:53;101093.53;;;21.68;44.86
80397;BME280;69721;55.894;-3.052;2023-08-20T11:27:18;101091.13;;;21.54;44.53
80397;BME280;69721;55.894;-3.052;2023-08-20T11:29:44;101096.09;;;22.04;42.76
80397;BME280;69721;55.894;-3.052;2023-08-20T11:32:10;101099.50;;;21.90;43.37
80397;BME280;69721;55.894;-3.052;2023-08-20T11:34:35;101093.36;;;21.96;42.40
80397;BME280;69721;55.894;-3.052;2023-08-20T11:37:00;101090.16;;;21.50;43.34
80397;BME280;69721;55.894;-3.052;2023-08-20T11:39:26;101091.52;;;20.48;44.22
80397;BME280;69721;55.894;-3.052;2023-08-20T11:41:53;101091.84;;;21.29;44.29
80397;BME280;69721;55.894;-3.052;2023-08-20T11:44:20;101096.67;;;21.54;43.75
80397;BME280;69721;55.894;-3.052;2023-08-20T11:46:44;101087.46;;;21.51;43.18
80397;BME280;69721;55.894;-3.052;2023-08-20T11:49:11;101090.85;;;20.43;45.03
80397;BME280;69721;55.894;-3.052;2023-08-20T11:51:37;101094.90;;;20.36;45.78
80397;BME280;69721;55.894;-3.052;2023-08-20T11:54:00;101095.83;;;20.30;44.73
80397;BME280;69721;55.894;-3.052;2023-08-20T11:56:27;101102.98;;;20.27;44.99
80397;BME280;69721;55.894;-3.052;2023-08-20T11:58:51;101095.14;;;20.78;46.06
80397;BME280;69721;55.894;-3.052;2023-08-20T12:01:17;101091.84;;;21.89;44.30
80397;BME280;69721;55.894;-3.052;2023-08-20T12:03:43;101093.04;;;21.52;43.58
80397;BME280;69721;55.894;-3.052;2023-08-20T12:06:18;101097.67;;;20.62;43.79
80397;BME280;69721;55.894;-3.052;2023-08-20T12:08:37;101106.91;;;20.86;43.09
80397;BME280;69721;55.894;-3.052;2023-08-20T12:10:58;101104.12;;;20.60;43.04
80397;BME280;69721;55.894;-3.052;2023-08-20T12:13:23;101105.49;;;19.80;44.19
80397;BME280;69721;55.894;-3.052;2023-08-20T12:15:48;101096.43;;;20.78;43.45
80397;BME280;69721;55.894;-3.052;2023-08-20T12:18:14;101098.24;;;20.95;44.95
80397;BME280;69721;55.894;-3.052;2023-08-20T12:20:39;101097.57;;;21.26;41.14
80397;BME280;69721;55.894;-3.052;2023-08-20T12:23:06;101082.84;;;21.02;43.39
80397;BME280;69721;55.894;-3.052;2023-08-20T12:25:34;101080.40;;;22.50;39.55
80397;BME280;69721;55.894;-3.052;2023-08-20T12:27:56;101088.93;;;21.54;40.93
80397;BME280;69721;55.894;-3.052;2023-08-20T12:30:21;101086.38;;;21.17;40.66
80397;BME280;69721;55.894;-3.052;2023-08-20T12:32:46;101088.02;;;20.92;41.40
80397;BME280;69721;55.894;-3.052;2023-08-20T12:35:12;101089.91;;;20.41;42.42
80397;BME280;69721;55.894;-3.052;2023-08-20T12:37:37;101087.99;;;20.76;42.13
80397;BME280;69721;55.894;-3.052;2023-08-20T12:40:04;101090.81;;;20.88;41.61
80397;BME280;69721;55.894;-3.052;2023-08-20T12:42:28;101088.45;;;21.98;40.90
80397;BME280;69721;55.894;-3.052;2023-08-20T12:44:53;101087.76;;;21.83;40.83
80397;BME280;69721;55.894;-3.052;2023-08-20T12:47:18;101087.32;;;21.88;40.60
80397;BME280;69721;55.894;-3.052;2023-08-20T12:49:44;101089.67;;;21.95;41.19
80397;BME280;69721;55.894;-3.052;2023-08-20T12:52:09;101083.20;;;21.96;38.70
80397;BME280;69721;55.894;-3.052;2023-08-20T12:54:34;101077.70;;;20.79;40.83